sensor_id;sensor_type;location;lat;lon;timestamp;temperature;humidity
5492;DHT22;2768;53.540;10.224;2022-08-11T00:05:43;21.40;1.00
5492;DHT22;2768;53.540;10.224;2022-08-11T00:11:40;21.40;1.00
5492;DHT22;2768;53.540;10.224;2022-08-11T00:17:35;21.30;1.00
5492;DHT22;2768;53.540;10.224;2022-08-11T00:23:30;21.10;1.00
5492;DHT22;2768;53.540;10.224;2022-08-11T00:29:25;21.10;1.00
5492;DHT22;2768;53.540;10.224;2022-08-11T00:35:26;20.90;1.00
5492;DHT22;2768;53.540;10.224;2022-08-11T00:41:59;21.00;1.00
5492;DHT22;2768;53.540;10.224;2022-08-11T00:48:03;20.80;1.00
5492;DHT22;2768;53.540;10.224;2022-08-11T00:54:05;20.70;1.00
5492;DHT22;2768;53.540;10.224;2022-08-11T01:00:11;20.70;1.00
5492;DHT22;2768;53.540;10.224;2022-08-11T01:06:45;20.50;1.00
5492;DHT22;2768;53.540;10.224;2022-08-11T01:12:51;20.20;1.00
5492;DHT22;2768;53.540;10.224;2022-08-11T01:25:45;20.50;1.00
5492;DHT22;2768;53.540;10.224;2022-08-11T01:32:23;20.50;1.00
5492;DHT22;2768;53.540;10.224;2022-08-11T01:45:09;20.40;1.00
5492;DHT22;2768;53.540;10.224;2022-08-11T01:51:16;20.10;7.20
5492;DHT22;2768;53.540;10.224;2022-08-11T01:57:25;20.20;2.30
5492;DHT22;2768;53.540;10.224;2022-08-11T02:03:26;20.10;2.20
5492;DHT22;2768;53.540;10.224;2022-08-11T02:15:47;19.90;4.30
5492;DHT22;2768;53.540;10.224;2022-08-11T02:21:49;20.00;8.10
5492;DHT22;2768;53.540;10.224;2022-08-11T02:28:06;19.90;8.20
5492;DHT22;2768;53.540;10.224;2022-08-11T02:34:15;19.80;10.40
5492;DHT22;2768;53.540;10.224;2022-08-11T02:40:22;19.90;8.30
5492;DHT22;2768;53.540;10.224;2022-08-11T02:46:22;19.70;10.00
5492;DHT22;2768;53.540;10.224;2022-08-11T02:52:24;19.70;13.70
5492;DHT22;2768;53.540;10.224;2022-08-11T02:58:26;19.70;12.20
5492;DHT22;2768;53.540;10.224;2022-08-11T03:04:26;19.60;13.60
5492;DHT22;2768;53.540;10.224;2022-08-11T03:10:35;19.60;13.70
5492;DHT22;2768;53.540;10.224;2022-08-11T03:16:44;19.60;13.60
5492;DHT22;2768;53.540;10.224;2022-08-11T03:22:48;19.40;15.30
5492;DHT22;2768;53.540;10.224;2022-08-11T03:28:50;19.30;17.20
5492;DHT22;2768;53.540;10.224;2022-08-11T03:34:47;19.30;21.60
5492;DHT22;2768;53.540;10.224;2022-08-11T03:40:50;19.20;23.60
5492;DHT22;2768;53.540;10.224;2022-08-11T03:47:36;19.30;25.90
5492;DHT22;2768;53.540;10.224;2022-08-11T03:53:57;19.10;28.80
5492;DHT22;2768;53.540;10.224;2022-08-11T04:00:16;19.10;31.60
5492;DHT22;2768;53.540;10.224;2022-08-11T04:19:50;18.30;66.20
5492;DHT22;2768;53.540;10.224;2022-08-11T04:26:04;18.10;90.30
5492;DHT22;2768;53.540;10.224;2022-08-11T04:32:27;18.60;90.50
5492;DHT22;2768;53.540;10.224;2022-08-11T04:38:37;18.90;77.60
5492;DHT22;2768;53.540;10.224;2022-08-11T04:45:08;19.20;69.50
5492;DHT22;2768;53.540;10.224;2022-08-11T04:51:21;19.20;67.10
5492;DHT22;2768;53.540;10.224;2022-08-11T04:58:01;19.10;67.00
5492;DHT22;2768;53.540;10.224;2022-08-11T05:04:49;19.20;71.60
5492;DHT22;2768;53.540;10.224;2022-08-11T05:17:41;19.30;74.40
5492;DHT22;2768;53.540;10.224;2022-08-11T05:23:57;19.30;72.50
5492;DHT22;2768;53.540;10.224;2022-08-11T05:36:29;19.40;75.50
5492;DHT22;2768;53.540;10.224;2022-08-11T05:42:24;19.50;74.30
5492;DHT22;2768;53.540;10.224;2022-08-11T05:48:36;19.50;79.70
5492;DHT22;2768;53.540;10.224;2022-08-11T05:54:50;19.50;75.00
5492;DHT22;2768;53.540;10.224;2022-08-11T06:01:01;19.60;73.30
5492;DHT22;2768;53.540;10.224;2022-08-11T06:06:57;19.70;74.40
5492;DHT22;2768;53.540;10.224;2022-08-11T06:12:53;19.70;68.90
5492;DHT22;2768;53.540;10.224;2022-08-11T06:18:48;19.90;67.60
5492;DHT22;2768;53.540;10.224;2022-08-11T06:24:50;20.00;56.50
5492;DHT22;2768;53.540;10.224;2022-08-11T06:30:46;20.10;58.30
5492;DHT22;2768;53.540;10.224;2022-08-11T06:36:46;20.30;46.40
5492;DHT22;2768;53.540;10.224;2022-08-11T06:42:50;20.30;48.30
5492;DHT22;2768;53.540;10.224;2022-08-11T06:48:47;20.40;51.50
5492;DHT22;2768;53.540;10.224;2022-08-11T06:54:43;20.50;47.70
5492;DHT22;2768;53.540;10.224;2022-08-11T07:00:41;20.70;39.90
5492;DHT22;2768;53.540;10.224;2022-08-11T07:06:45;20.80;39.70
5492;DHT22;2768;53.540;10.224;2022-08-11T07:13:02;20.90;41.60
5492;DHT22;2768;53.540;10.224;2022-08-11T07:19:34;21.10;36.70
5492;DHT22;2768;53.540;10.224;2022-08-11T07:25:53;21.20;31.30
5492;DHT22;2768;53.540;10.224;2022-08-11T07:32:14;21.30;22.80
5492;DHT22;2768;53.540;10.224;2022-08-11T07:38:11;21.40;23.20
5492;DHT22;2768;53.540;10.224;2022-08-11T07:44:15;21.50;24.00
5492;DHT22;2768;53.540;10.224;2022-08-11T07:50:10;21.60;23.80
5492;DHT22;2768;53.540;10.224;2022-08-11T07:56:21;21.70;5.70
5492;DHT22;2768;53.540;10.224;2022-08-11T08:02:37;21.80;1.00
5492;DHT22;2768;53.540;10.224;2022-08-11T08:08:48;22.00;1.00
5492;DHT22;2768;53.540;10.224;2022-08-11T08:15:00;22.00;1.00
5492;DHT22;2768;53.540;10.224;2022-08-11T08:21:17;22.10;1.00
5492;DHT22;2768;53.540;10.224;2022-08-11T08:27:12;22.30;1.00
5492;DHT22;2768;53.540;10.224;2022-08-11T08:33:07;22.50;1.00
5492;DHT22;2768;53.540;10.224;2022-08-11T08:39:02;22.60;1.00
5492;DHT22;2768;53.540;10.224;2022-08-11T08:44:58;22.80;1.00
5492;DHT22;2768;53.540;10.224;2022-08-11T08:51:00;22.90;1.00
5492;DHT22;2768;53.540;10.224;2022-08-11T08:57:16;23.10;1.00
5492;DHT22;2768;53.540;10.224;2022-08-11T09:03:11;23.30;1.00
5492;DHT22;2768;53.540;10.224;2022-08-11T09:09:27;23.40;1.00
5492;DHT22;2768;53.540;10.224;2022-08-11T09:15:22;23.50;1.00
5492;DHT22;2768;53.540;10.224;2022-08-11T09:21:17;23.70;1.00
5492;DHT22;2768;53.540;10.224;2022-08-11T09:27:35;23.80;1.00
5492;DHT22;2768;53.540;10.224;2022-08-11T09:33:43;23.90;1.00
5492;DHT22;2768;53.540;10.224;2022-08-11T09:39:39;24.00;1.00
5492;DHT22;2768;53.540;10.224;2022-08-11T09:45:52;24.20;1.00
5492;DHT22;2768;53.540;10.224;2022-08-11T09:51:48;24.40;1.00
5492;DHT22;2768;53.540;10.224;2022-08-11T09:57:56;24.60;1.00
5492;DHT22;2768;53.540;10.224;2022-08-11T10:04:34;24.80;1.00
5492;DHT22;2768;53.540;10.224;2022-08-11T10:10:34;24.90;1.00
5492;DHT22;2768;53.540;10.224;2022-08-11T10:16:31;25.00;1.00
5492;DHT22;2768;53.540;10.224;2022-08-11T10:22:27;25.30;1.00
5492;DHT22;2768;53.540;10.224;2022-08-11T10:28:40;25.50;1.00
5492;DHT22;2768;53.540;10.224;2022-08-11T10:34:55;25.70;1.00
5492;DHT22;2768;53.540;10.224;2022-08-11T10:40:50;26.00;1.00
5492;DHT22;2768;53.540;10.224;2022-08-11T10:47:06;26.10;1.00
5492;DHT22;2768;53.540;10.224;2022-08-11T10:53:17;26.40;1.00
5492;DHT22;2768;53.540;10.224;2022-08-11T10:59:33;26.70;1.00
5492;DHT22;2768;53.540;10.224;2022-08-11T11:05:29;27.10;1.00
5492;DHT22;2768;53.540;10.224;2022-08-11T11:11:25;27.40;1.00
5492;DHT22;2768;53.540;10.224;2022-08-11T11:17:42;27.80;1.00
5492;DHT22;2768;53.540;10.224;2022-08-11T11:24:02;28.30;1.00
5492;DHT22;2768;53.540;10.224;2022-08-11T11:30:05;28.50;1.00
5492;DHT22;2768;53.540;10.224;2022-08-11T11:36:08;28.70;1.00
5492;DHT22;2768;53.540;10.224;2022-08-11T11:42:07;29.30;1.00
5492;DHT22;2768;53.540;10.224;2022-08-11T11:48:02;29.70;1.00
5492;DHT22;2768;53.540;10.224;2022-08-11T11:53:56;29.60;1.00
5492;DHT22;2768;53.540;10.224;2022-08-11T11:59:51;30.10;1.00
5492;DHT22;2768;53.540;10.224;2022-08-11T12:06:03;30.70;1.00
5492;DHT22;2768;53.540;10.224;2022-08-11T12:11:57;30.90;1.00
5492;DHT22;2768;53.540;10.224;2022-08-11T12:18:10;30.90;1.00
5492;DHT22;2768;53.540;10.224;2022-08-11T12:24:04;30.70;1.00
5492;DHT22;2768;53.540;10.224;2022-08-11T12:30:20;31.30;1.00
5492;DHT22;2768;53.540;10.224;2022-08-11T12:36:16;31.90;1.00
5492;DHT22;2768;53.540;10.224;2022-08-11T12:42:12;31.60;1.00
5492;DHT22;2768;53.540;10.224;2022-08-11T12:48:28;31.70;1.00
5492;DHT22;2768;53.540;10.224;2022-08-11T12:54:58;32.20;1.00
5492;DHT22;2768;53.540;10.224;2022-08-11T13:00:52;32.60;1.00
5492;DHT22;2768;53.540;10.224;2022-08-11T13:07:05;32.40;1.00
5492;DHT22;2768;53.540;10.224;2022-08-11T13:13:00;31.80;1.00
5492;DHT22;2768;53.540;10.224;2022-08-11T13:18:55;31.90;1.00
5492;DHT22;2768;53.540;10.224;2022-08-11T13:24:50;31.90;1.00
5492;DHT22;2768;53.540;10.224;2022-08-11T13:30:48;32.40;1.00
5492;DHT22;2768;53.540;10.224;2022-08-11T13:37:01;33.70;1.00
5492;DHT22;2768;53.540;10.224;2022-08-11T13:42:56;33.60;1.00
5492;DHT22;2768;53.540;10.224;2022-08-11T13:48:54;33.20;1.00
5492;DHT22;2768;53.540;10.224;2022-08-11T13:54:51;33.70;1.00
5492;DHT22;2768;53.540;10.224;2022-08-11T14:00:49;34.00;1.00
5492;DHT22;2768;53.540;10.224;2022-08-11T14:06:50;34.70;1.00
5492;DHT22;2768;53.540;10.224;2022-08-11T14:12:49;34.30;1.00
5492;DHT22;2768;53.540;10.224;2022-08-11T14:19:04;35.30;1.00
5492;DHT22;2768;53.540;10.224;2022-08-11T14:25:01;36.00;1.00
5492;DHT22;2768;53.540;10.224;2022-08-11T14:30:55;36.00;1.00
5492;DHT22;2768;53.540;10.224;2022-08-11T14:36:55;36.20;1.00
5492;DHT22;2768;53.540;10.224;2022-08-11T14:42:50;35.20;1.00
5492;DHT22;2768;53.540;10.224;2022-08-11T14:49:03;35.60;1.00
5492;DHT22;2768;53.540;10.224;2022-08-11T14:54:56;36.20;1.00
5492;DHT22;2768;53.540;10.224;2022-08-11T15:01:09;36.20;1.00
5492;DHT22;2768;53.540;10.224;2022-08-11T15:07:17;35.30;1.00
5492;DHT22;2768;53.540;10.224;2022-08-11T15:13:14;34.60;1.00
5492;DHT22;2768;53.540;10.224;2022-08-11T15:19:11;34.10;1.00
5492;DHT22;2768;53.540;10.224;2022-08-11T15:25:06;33.80;1.00
5492;DHT22;2768;53.540;10.224;2022-08-11T15:31:02;33.30;1.00
5492;DHT22;2768;53.540;10.224;2022-08-11T15:37:16;32.80;1.00
5492;DHT22;2768;53.540;10.224;2022-08-11T15:43:25;32.70;1.00
5492;DHT22;2768;53.540;10.224;2022-08-11T15:49:39;32.50;1.00
5492;DHT22;2768;53.540;10.224;2022-08-11T15:55:55;32.10;1.00
5492;DHT22;2768;53.540;10.224;2022-08-11T16:01:52;31.80;1.00
5492;DHT22;2768;53.540;10.224;2022-08-11T16:08:07;31.60;1.00
5492;DHT22;2768;53.540;10.224;2022-08-11T16:14:06;31.50;1.00
5492;DHT22;2768;53.540;10.224;2022-08-11T16:20:20;31.10;1.00
5492;DHT22;2768;53.540;10.224;2022-08-11T16:26:18;30.90;1.00
5492;DHT22;2768;53.540;10.224;2022-08-11T16:32:38;30.80;1.00
5492;DHT22;2768;53.540;10.224;2022-08-11T16:38:32;30.70;1.00
5492;DHT22;2768;53.540;10.224;2022-08-11T16:44:27;30.50;1.00
5492;DHT22;2768;53.540;10.224;2022-08-11T16:50:41;30.30;1.00
5492;DHT22;2768;53.540;10.224;2022-08-11T16:56:36;30.20;1.00
5492;DHT22;2768;53.540;10.224;2022-08-11T17:02:32;30.00;1.00
5492;DHT22;2768;53.540;10.224;2022-08-11T17:08:49;29.80;1.00
5492;DHT22;2768;53.540;10.224;2022-08-11T17:15:02;29.60;1.00
5492;DHT22;2768;53.540;10.224;2022-08-11T17:21:21;29.50;1.00
5492;DHT22;2768;53.540;10.224;2022-08-11T17:27:19;29.40;1.00
5492;DHT22;2768;53.540;10.224;2022-08-11T17:33:14;29.20;1.00
5492;DHT22;2768;53.540;10.224;2022-08-11T17:39:28;29.10;1.00
5492;DHT22;2768;53.540;10.224;2022-08-11T17:45:24;28.90;1.00
5492;DHT22;2768;53.540;10.224;2022-08-11T17:51:38;28.80;1.00
5492;DHT22;2768;53.540;10.224;2022-08-11T17:57:51;28.70;1.00
5492;DHT22;2768;53.540;10.224;2022-08-11T18:04:06;28.50;1.00
5492;DHT22;2768;53.540;10.224;2022-08-11T18:10:02;28.40;1.00
5492;DHT22;2768;53.540;10.224;2022-08-11T18:16:14;28.20;1.00
5492;DHT22;2768;53.540;10.224;2022-08-11T18:22:29;28.10;1.00
5492;DHT22;2768;53.540;10.224;2022-08-11T18:28:43;28.00;1.00
5492;DHT22;2768;53.540;10.224;2022-08-11T18:34:56;27.80;1.00
5492;DHT22;2768;53.540;10.224;2022-08-11T18:41:10;27.60;1.00
5492;DHT22;2768;53.540;10.224;2022-08-11T18:47:22;27.50;1.00
5492;DHT22;2768;53.540;10.224;2022-08-11T18:53:40;27.20;1.00
5492;DHT22;2768;53.540;10.224;2022-08-11T18:59:53;27.00;1.00
5492;DHT22;2768;53.540;10.224;2022-08-11T19:06:08;26.80;1.00
5492;DHT22;2768;53.540;10.224;2022-08-11T19:12:36;26.60;1.00
5492;DHT22;2768;53.540;10.224;2022-08-11T19:18:50;26.50;1.00
5492;DHT22;2768;53.540;10.224;2022-08-11T19:25:02;26.50;1.00
5492;DHT22;2768;53.540;10.224;2022-08-11T19:31:16;26.20;1.00
5492;DHT22;2768;53.540;10.224;2022-08-11T19:37:39;26.20;1.00
5492;DHT22;2768;53.540;10.224;2022-08-11T19:43:51;26.10;1.00
5492;DHT22;2768;53.540;10.224;2022-08-11T19:50:07;25.90;1.00
5492;DHT22;2768;53.540;10.224;2022-08-11T19:56:19;25.80;1.00
5492;DHT22;2768;53.540;10.224;2022-08-11T20:02:31;25.70;1.00
5492;DHT22;2768;53.540;10.224;2022-08-11T20:08:43;25.60;1.00
5492;DHT22;2768;53.540;10.224;2022-08-11T20:14:57;25.40;1.00
5492;DHT22;2768;53.540;10.224;2022-08-11T20:21:09;25.20;1.00
5492;DHT22;2768;53.540;10.224;2022-08-11T20:27:24;25.10;1.00
5492;DHT22;2768;53.540;10.224;2022-08-11T20:33:38;25.00;1.00
5492;DHT22;2768;53.540;10.224;2022-08-11T20:39:50;25.00;1.00
5492;DHT22;2768;53.540;10.224;2022-08-11T20:46:04;24.90;1.00
5492;DHT22;2768;53.540;10.224;2022-08-11T20:52:18;24.80;1.00
5492;DHT22;2768;53.540;10.224;2022-08-11T20:58:30;24.80;1.00
5492;DHT22;2768;53.540;10.224;2022-08-11T21:05:03;24.80;1.00
5492;DHT22;2768;53.540;10.224;2022-08-11T21:11:37;24.60;1.00
5492;DHT22;2768;53.540;10.224;2022-08-11T21:17:50;24.50;1.00
5492;DHT22;2768;53.540;10.224;2022-08-11T21:24:20;24.30;1.00
5492;DHT22;2768;53.540;10.224;2022-08-11T21:30:39;24.30;1.00
5492;DHT22;2768;53.540;10.224;2022-08-11T21:36:51;24.50;1.00
5492;DHT22;2768;53.540;10.224;2022-08-11T21:43:04;24.30;1.00
5492;DHT22;2768;53.540;10.224;2022-08-11T21:49:17;24.40;1.00
5492;DHT22;2768;53.540;10.224;2022-08-11T21:55:31;24.40;1.00
5492;DHT22;2768;53.540;10.224;2022-08-11T22:01:43;24.40;1.00
5492;DHT22;2768;53.540;10.224;2022-08-11T22:07:56;24.30;1.00
5492;DHT22;2768;53.540;10.224;2022-08-11T22:14:07;24.20;1.00
5492;DHT22;2768;53.540;10.224;2022-08-11T22:20:17;24.10;1.00
5492;DHT22;2768;53.540;10.224;2022-08-11T22:26:30;23.90;1.00
5492;DHT22;2768;53.540;10.224;2022-08-11T22:32:44;24.00;1.00
5492;DHT22;2768;53.540;10.224;2022-08-11T22:38:57;23.90;1.00
5492;DHT22;2768;53.540;10.224;2022-08-11T22:45:11;23.70;1.00
5492;DHT22;2768;53.540;10.224;2022-08-11T22:51:22;23.60;1.00
5492;DHT22;2768;53.540;10.224;2022-08-11T22:57:34;23.60;1.00
5492;DHT22;2768;53.540;10.224;2022-08-11T23:03:54;23.60;1.00
5492;DHT22;2768;53.540;10.224;2022-08-11T23:10:07;23.50;1.00
5492;DHT22;2768;53.540;10.224;2022-08-11T23:16:19;23.50;1.00
5492;DHT22;2768;53.540;10.224;2022-08-11T23:22:32;23.30;1.00
5492;DHT22;2768;53.540;10.224;2022-08-11T23:28:43;23.30;1.00
5492;DHT22;2768;53.540;10.224;2022-08-11T23:34:59;23.10;1.00
5492;DHT22;2768;53.540;10.224;2022-08-11T23:41:32;23.20;1.00
5492;DHT22;2768;53.540;10.224;2022-08-11T23:47:44;23.10;1.00
5492;DHT22;2768;53.540;10.224;2022-08-11T23:53:56;23.00;1.00
